Time,TemperatureF,DewpointF,PressureIn,WindDirection,WindDirectionDegrees,WindSpeedMPH,WindSpeedGustMPH,Humidity,HourlyPrecipIn,Conditions,Clouds,dailyrainin,SolarRadiationWatts/m^2,SoftwareType,DateUTC
2013-01-15 00:00:00,-7.0,-99.9,44.89,SW,228,1.0,4.0,-999,-99.99,,,-99.99,0.000000,,2013-01-15 07:00:00,
2013-01-15 00:53:00,-7.0,-99.9,44.89,SW,228,1.0,4.0,-999,-99.99,,,-99.99,0.000000,,2013-01-15 07:53:00,
2013-01-15 01:00:00,-8.0,-99.9,-100.00,West,259,0.0,3.0,-999,-99.99,,,-99.99,0.000000,,2013-01-15 08:00:00,
2013-01-15 01:53:00,-8.0,-99.9,-100.00,West,259,0.0,3.0,-999,-99.99,,,-99.99,0.000000,,2013-01-15 08:53:00,
2013-01-15 02:00:00,-10.0,-99.9,-100.00,WSW,250,1.0,4.0,-999,-99.99,,,-99.99,0.000000,,2013-01-15 09:00:00,
2013-01-15 02:53:00,-10.0,-99.9,-100.00,WSW,250,1.0,4.0,-999,-99.99,,,-99.99,0.000000,,2013-01-15 09:53:00,
2013-01-15 03:00:00,-8.0,-99.9,44.89,WNW,285,1.0,5.0,-999,-99.99,,,0.00,0.000000,,2013-01-15 10:00:00,
2013-01-15 03:52:00,-8.0,-99.9,44.89,WNW,285,1.0,5.0,-999,-99.99,,,0.00,0.000000,,2013-01-15 10:52:00,
2013-01-15 04:00:00,5.0,-99.9,-100.00,West,265,2.0,8.0,-999,-99.99,,,0.00,0.000000,,2013-01-15 11:00:00,
2013-01-15 04:53:00,5.0,-99.9,-100.00,West,265,2.0,8.0,-999,-99.99,,,0.00,0.000000,,2013-01-15 11:53:00,
2013-01-15 05:00:00,6.0,-99.9,-100.00,East,84,3.0,10.0,-999,-99.99,,,0.01,0.000000,,2013-01-15 12:00:00,
2013-01-15 05:53:00,6.0,-99.9,-100.00,East,84,3.0,10.0,-999,-99.99,,,0.01,0.000000,,2013-01-15 12:53:00,
2013-01-15 06:00:00,6.0,-99.9,-100.00,SE,136,3.0,10.0,-999,-99.99,,,0.01,0.000000,,2013-01-15 13:00:00,
2013-01-15 06:53:00,6.0,-99.9,-100.00,SE,136,3.0,10.0,-999,-99.99,,,0.01,0.000000,,2013-01-15 13:53:00,
2013-01-15 07:00:00,13.0,-99.9,44.89,North,8,3.0,15.0,-999,-99.99,,,0.01,0.000000,,2013-01-15 14:00:00,
2013-01-15 07:54:00,13.0,-99.9,44.89,North,8,3.0,15.0,-999,-99.99,,,0.01,0.000000,,2013-01-15 14:54:00,
2013-01-15 08:00:00,6.0,-99.9,-100.00,ESE,118,3.0,12.0,-999,-99.99,,,0.01,0.000000,,2013-01-15 15:00:00,
2013-01-15 08:53:00,6.0,-99.9,-100.00,ESE,118,3.0,12.0,-999,-99.99,,,0.01,0.000000,,2013-01-15 15:53:00,
2013-01-15 10:00:00,19.0,-99.9,44.89,SSE,154,3.0,12.0,-999,-99.99,,,0.01,1.500000,,2013-01-15 17:00:00,
2013-01-15 10:53:00,19.0,-99.9,44.89,SSE,154,3.0,12.0,-999,-99.99,,,0.01,1.500000,,2013-01-15 17:53:00,
2013-01-15 11:00:00,20.0,-99.9,-100.00,SW,216,4.0,14.0,-999,-99.99,,,0.01,4.000000,,2013-01-15 18:00:00,
2013-01-15 12:00:00,21.0,-99.9,44.89,South,187,4.0,14.0,-999,-99.99,,,0.02,2.800000,,2013-01-15 19:00:00,
2013-01-15 12:53:00,21.0,-99.9,44.89,South,187,4.0,14.0,-999,-99.99,,,0.02,2.800000,,2013-01-15 19:53:00,
2013-01-15 13:00:00,22.0,-99.9,44.89,SSE,166,5.0,14.0,-999,-99.99,,,0.02,5.800000,,2013-01-15 20:00:00,
2013-01-15 13:53:00,22.0,-99.9,44.89,SSE,166,5.0,14.0,-999,-99.99,,,0.02,5.800000,,2013-01-15 20:53:00,
2013-01-15 15:00:00,26.0,-99.9,44.89,SSE,154,3.0,14.0,-999,-99.99,,,0.02,7.900000,,2013-01-15 22:00:00,
2013-01-15 15:53:00,26.0,-99.9,44.89,SSE,154,3.0,14.0,-999,-99.99,,,0.02,7.900000,,2013-01-15 22:53:00,
2013-01-15 16:00:00,23.0,-99.9,44.89,SSE,166,3.0,14.0,-999,-99.99,,,0.01,1.500000,,2013-01-15 23:00:00,
2013-01-15 16:53:00,23.0,-99.9,44.89,SSE,166,3.0,14.0,-999,-99.99,,,0.01,1.500000,,2013-01-15 23:53:00,
2013-01-15 17:00:00,24.0,-99.9,-100.00,South,187,2.0,12.0,-999,-99.99,,,0.02,13.100000,,2013-01-16 00:00:00,
2013-01-15 17:53:00,24.0,-99.9,-100.00,South,187,2.0,12.0,-999,-99.99,,,0.02,13.100000,,2013-01-16 00:53:00,
2013-01-15 18:00:00,24.0,-99.9,44.89,WSW,253,3.0,11.0,-999,-99.99,,,0.02,0.600000,,2013-01-16 01:00:00,
2013-01-15 18:53:00,24.0,-99.9,44.89,WSW,253,3.0,11.0,-999,-99.99,,,0.02,0.600000,,2013-01-16 01:53:00,
2013-01-15 19:00:00,24.0,-99.9,44.89,SSW,207,3.0,12.0,-999,-99.99,,,0.02,0.000000,,2013-01-16 02:00:00,
2013-01-15 19:53:00,24.0,-99.9,44.89,SSW,207,3.0,12.0,-999,-99.99,,,0.02,0.000000,,2013-01-16 02:53:00,
2013-01-15 20:00:00,23.0,-99.9,44.89,South,186,3.0,13.0,-999,-99.99,,,0.02,0.000000,,2013-01-16 03:00:00,
2013-01-15 20:53:00,23.0,-99.9,44.89,South,186,3.0,13.0,-999,-99.99,,,0.02,0.000000,,2013-01-16 03:53:00,
2013-01-15 21:00:00,25.0,-99.9,-100.00,South,191,2.0,11.0,-999,-99.99,,,0.02,7.000000,,2013-01-16 04:00:00,
2013-01-15 21:53:00,25.0,-99.9,-100.00,South,191,2.0,11.0,-999,-99.99,,,0.02,7.000000,,2013-01-16 04:53:00,
2013-01-15 22:00:00,24.0,-99.9,-100.00,North,-999,-999.0,-999.0,-999,-99.99,,,0.02,,,2013-01-16 05:00:00,
2013-01-15 22:53:00,24.0,-99.9,-100.00,North,-999,-999.0,-999.0,-999,-99.99,,,0.02,,,2013-01-16 05:53:00,
2013-01-15 23:00:00,22.0,-99.9,44.89,NW,307,1.0,6.0,-999,-99.99,,,0.01,0.000000,,2013-01-16 06:00:00,
2013-01-15 23:53:00,22.0,-99.9,44.89,NW,307,1.0,6.0,-999,-99.99,,,0.01,0.000000,,2013-01-16 06:53:00,